LIRF/FCO METAR and TAF weather

Enter ICAO airport designator
Station Type Date Time Source
LIRF METAR 2020/11/28 19:20 UTC NOAA

LIRF 281920Z 06008KT CAVOK 13/07 Q1010 NOSIG


Station Type Date Time Source
LIRF Decoded METAR 2020/11/28 19:20 UTC NOAA

Roma Fiumicino, Italy (LIRF) 41-48N 012-14E 3M
Nov 28, 2020 - 02:20 PM EST / 2020.11.28 1920 UTC
Wind: from the ENE (060 degrees) at 9 MPH (8 KT):0
Visibility: greater than 7 mile(s):0
Temperature: 55 F (13 C)
Dew Point: 44 F (7 C)
Relative Humidity: 66%
Pressure (altimeter): 29.83 in. Hg (1010 hPa)
ob: LIRF 281920Z 06008KT CAVOK 13/07 Q1010 NOSIG
cycle: 19

Station Type Date Time Source
LIRF TAF 2020/11/28 18:21 UTC NOAA

TAF LIRF 281700Z 2818/2924 10010KT 9999 SCT020
TEMPO 2821/2904 4000 SHRA BKN014
BECMG 2904/2906 04010KT
TEMPO 2908/2918 04015G25KT

Example: see airport list